Terminal Aerodrome Forecast
Issued by NWS

Home | Current Version | Previous Version | Text Only | Print | Product List | Glossary On
Versions: 1 2 3 4 5 6 7 8 9 10 11 12 13 14
176
FTUS44 KLZK 041259 AAA
TAFHOT
TAF AMD
KHOT 041259Z 0413/0512 05005KT P6SM OVC008
      TEMPO 0413/0415 3SM BR OVC004
     FM041700 34005KT 5SM -RA BR OVC015
     FM050000 01003KT P6SM OVC025
     FM050600 06004KT 3SM BR OVC009=

USA.gov is the U.S. government's official web portal to all federal, state and local government web resources and services.